Time;durP1;ratioP1;P1;durP2;ratioP2;P2;SDS_P1;SDS_P2;PMS_P1;PMS_P2;Temp;Humidity;BMP_temperature;BMP_pressure;BME280_temperature;BME280_humidity;BME280_pressure;Samples;Min_cycle;Max_cycle;Signal;HPM_P1;HPM_P2
2023/03/14 00:01:52;;;;;;;12.02;4.15;;;8.80;99.90;;;;;;5054490;28;20111;-71
2023/03/14 00:04:17;;;;;;;10.80;3.95;;;8.60;99.90;;;;;;5056735;28;20032;-70
2023/03/14 00:06:43;;;;;;;11.73;3.80;;;8.60;99.90;;;;;;5055781;28;20098;-70
2023/03/14 00:09:09;;;;;;;10.70;4.05;;;8.70;99.90;;;;;;5045735;28;20432;-70
2023/03/14 00:11:34;;;;;;;19.60;5.68;;;8.80;99.90;;;;;;5037181;28;20619;-70
2023/03/14 00:14:00;;;;;;;14.30;3.83;;;8.70;99.90;;;;;;5037790;28;20049;-70
2023/03/14 00:16:26;;;;;;;9.30;3.90;;;8.60;99.90;;;;;;5038534;28;20017;-70
2023/03/14 00:18:52;;;;;;;12.43;4.45;;;8.60;99.90;;;;;;5037691;28;20029;-70
2023/03/14 00:21:18;;;;;;;20.55;4.95;;;8.60;99.90;;;;;;5039629;28;20030;-70
2023/03/14 00:23:44;;;;;;;11.90;3.78;;;8.50;99.90;;;;;;5041383;28;20018;-70
2023/03/14 00:26:13;;;;;;;15.68;3.95;;;8.40;99.90;;;;;;5041267;28;20476;-69
2023/03/14 00:28:39;;;;;;;8.85;3.75;;;8.40;99.90;;;;;;5041851;28;20482;-70
2023/03/14 00:31:07;;;;;;;10.77;4.65;;;8.30;99.90;;;;;;5040758;28;20037;-70
2023/03/14 00:33:33;;;;;;;16.20;4.72;;;8.30;99.90;;;;;;5041283;28;20112;-70
2023/03/14 00:36:01;;;;;;;14.73;4.43;;;8.30;99.90;;;;;;5040315;28;20049;-69
2023/03/14 00:38:27;;;;;;;14.48;5.22;;;8.30;99.90;;;;;;5041233;28;20052;-69
2023/03/14 00:40:54;;;;;;;16.30;6.07;;;8.50;99.90;;;;;;5041066;28;20029;-69
2023/03/14 00:43:21;;;;;;;15.35;4.78;;;8.50;99.90;;;;;;5040829;28;20079;-69
2023/03/14 00:45:48;;;;;;;16.98;4.68;;;8.60;99.90;;;;;;5040658;28;20493;-69
2023/03/14 00:48:14;;;;;;;21.73;4.75;;;8.60;99.90;;;;;;5040786;28;20025;-69
2023/03/14 00:50:39;;;;;;;11.13;4.95;;;8.70;99.90;;;;;;5040469;28;20502;-70
2023/03/14 00:53:05;;;;;;;10.45;4.10;;;8.70;99.90;;;;;;5040595;28;20037;-69
2023/03/14 00:55:31;;;;;;;12.82;5.10;;;8.70;99.90;;;;;;5040516;28;20026;-69
2023/03/14 00:57:56;;;;;;;15.27;4.82;;;8.60;99.90;;;;;;5039972;28;20055;-69
2023/03/14 01:00:23;;;;;;;11.38;4.13;;;8.50;99.90;;;;;;5040314;28;20036;-69
2023/03/14 01:02:49;;;;;;;16.13;5.10;;;8.40;99.90;;;;;;5039295;28;20036;-69
2023/03/14 01:05:14;;;;;;;10.63;3.88;;;8.40;99.90;;;;;;5040978;28;20026;-69
2023/03/14 01:07:40;;;;;;;15.38;4.20;;;8.40;99.90;;;;;;5040714;28;20033;-69
2023/03/14 01:10:07;;;;;;;19.27;4.38;;;8.50;99.90;;;;;;5041115;28;20029;-69
2023/03/14 01:12:33;;;;;;;12.48;4.65;;;8.60;99.90;;;;;;5040580;28;20378;-69
2023/03/14 01:14:58;;;;;;;12.20;4.82;;;8.80;99.90;;;;;;5027619;28;20084;-69
2023/03/14 01:17:24;;;;;;;17.90;4.82;;;9.10;99.90;;;;;;5040903;28;20032;-69
2023/03/14 01:19:49;;;;;;;11.05;3.83;;;9.20;99.90;;;;;;5041458;28;20464;-70
2023/03/14 01:22:15;;;;;;;15.48;4.65;;;9.40;99.90;;;;;;5040840;28;20420;-70
2023/03/14 01:24:41;;;;;;;7.18;3.70;;;9.50;99.90;;;;;;5041643;28;20048;-69
2023/03/14 01:27:07;;;;;;;10.30;4.22;;;9.50;99.90;;;;;;5040569;28;20028;-69
2023/03/14 01:29:32;;;;;;;15.13;3.47;;;9.50;99.90;;;;;;5046886;28;20028;-70
2023/03/14 01:31:58;;;;;;;16.52;4.50;;;9.50;99.90;;;;;;5059246;28;20035;-69
2023/03/14 01:34:23;;;;;;;15.73;4.30;;;9.60;99.90;;;;;;5052849;28;20156;-69
2023/03/14 01:36:49;;;;;;;9.05;3.70;;;9.60;99.90;;;;;;5039355;28;20021;-69
2023/03/14 01:39:15;;;;;;;10.23;4.60;;;9.60;99.90;;;;;;5043242;28;20500;-70
2023/03/14 01:41:41;;;;;;;16.15;3.90;;;9.60;99.90;;;;;;5046418;28;20027;-69
2023/03/14 01:44:10;;;;;;;11.60;4.50;;;9.50;99.90;;;;;;5040287;28;20029;-71
2023/03/14 01:46:41;;;;;;;12.15;3.72;;;9.50;99.90;;;;;;5045245;28;20031;-69
2023/03/14 01:49:28;;;;;;;15.75;4.60;;;9.60;99.90;;;;;;5043154;28;20447;-70
2023/03/14 01:51:56;;;;;;;10.57;4.18;;;9.60;99.90;;;;;;5030164;28;20053;-69
2023/03/14 01:54:36;;;;;;;13.95;4.30;;;9.70;99.90;;;;;;5042912;28;20057;-69
2023/03/14 01:57:15;;;;;;;19.63;4.18;;;9.70;99.90;;;;;;5044728;28;20028;-70
2023/03/14 01:59:46;;;;;;;11.32;3.97;;;9.70;99.90;;;;;;5047472;28;20013;-69
2023/03/14 02:02:12;;;;;;;;;;;9.80;99.90;;;;;;5043858;28;20014;-69
2023/03/14 02:04:39;;;;;;;11.10;4.95;;;9.80;99.90;;;;;;5046916;28;19958;-70
2023/03/14 02:07:13;;;;;;;14.40;4.18;;;9.90;99.90;;;;;;5043611;28;20386;-70
2023/03/14 02:09:39;;;;;;;12.07;3.88;;;10.00;99.90;;;;;;5047480;28;20366;-70
2023/03/14 02:12:07;;;;;;;9.05;3.88;;;10.10;99.90;;;;;;5043579;28;20025;-69
2023/03/14 02:14:35;;;;;;;16.38;5.32;;;10.20;99.90;;;;;;5030571;28;20027;-70
2023/03/14 02:17:04;;;;;;;16.20;4.82;;;10.30;99.90;;;;;;5044595;28;20106;-70
2023/03/14 02:19:43;;;;;;;12.25;4.35;;;10.30;99.90;;;;;;5040561;28;20018;-70
2023/03/14 02:22:11;;;;;;;16.05;4.10;;;10.40;99.90;;;;;;5043183;28;20071;-70
2023/03/14 02:24:40;;;;;;;16.70;4.57;;;10.40;99.90;;;;;;5045874;28;20079;-69
2023/03/14 02:27:14;;;;;;;14.48;4.28;;;10.40;99.90;;;;;;5035088;28;20021;-69
2023/03/14 02:29:50;;;;;;;19.17;4.90;;;10.40;99.90;;;;;;5043920;28;20028;-70
2023/03/14 02:32:17;;;;;;;13.20;4.22;;;10.50;99.90;;;;;;5038863;28;20030;-70
2023/03/14 02:34:46;;;;;;;19.17;5.97;;;10.60;99.90;;;;;;5039023;28;20017;-70
2023/03/14 02:37:15;;;;;;;15.13;4.53;;;10.70;99.90;;;;;;5039643;28;20025;-70
2023/03/14 02:39:44;;;;;;;17.65;6.00;;;10.70;99.90;;;;;;5038388;28;20493;-70
2023/03/14 02:42:10;;;;;;;12.98;4.72;;;10.70;99.90;;;;;;5038201;28;20108;-69
2023/03/14 02:44:47;;;;;;;19.70;4.70;;;10.80;99.90;;;;;;5037062;28;20095;-70
2023/03/14 02:47:12;;;;;;;19.40;3.70;;;10.80;99.90;;;;;;5038833;28;20478;-70
2023/03/14 02:49:38;;;;;;;13.77;4.55;;;10.90;99.90;;;;;;5038380;28;20397;-69
2023/03/14 02:52:04;;;;;;;18.00;5.38;;;10.90;99.90;;;;;;5038371;28;20088;-69
2023/03/14 02:54:29;;;;;;;14.52;3.78;;;11.00;99.90;;;;;;5038218;28;20075;-70
2023/03/14 02:56:55;;;;;;;15.70;3.28;;;11.00;99.90;;;;;;5033663;28;20022;-69
2023/03/14 02:59:20;;;;;;;20.15;3.60;;;11.10;99.90;;;;;;5029877;28;20024;-70
2023/03/14 03:01:46;;;;;;;24.67;5.38;;;11.30;99.90;;;;;;5039157;28;20033;-70
2023/03/14 03:04:12;;;;;;;18.00;4.68;;;11.30;99.90;;;;;;5038364;28;20109;-69
2023/03/14 03:06:37;;;;;;;14.80;4.97;;;11.30;99.90;;;;;;5039140;28;20022;-69
2023/03/14 03:09:03;;;;;;;17.17;5.57;;;11.30;99.90;;;;;;5038790;28;20067;-69
2023/03/14 03:11:29;;;;;;;17.17;4.50;;;11.30;99.90;;;;;;5025748;28;20120;-70
2023/03/14 03:13:54;;;;;;;9.48;4.20;;;11.30;99.90;;;;;;5038735;28;20033;-70
2023/03/14 03:16:20;;;;;;;14.85;4.53;;;11.30;99.90;;;;;;5040179;28;20018;-69
2023/03/14 03:18:46;;;;;;;17.10;5.25;;;11.30;99.90;;;;;;5039146;28;20037;-69
2023/03/14 03:21:11;;;;;;;21.27;6.45;;;11.30;99.90;;;;;;5036086;28;20049;-69
2023/03/14 03:23:37;;;;;;;20.58;4.75;;;11.40;99.90;;;;;;5031067;28;20021;-69
2023/03/14 03:26:03;;;;;;;15.82;4.75;;;11.40;99.90;;;;;;5040695;28;20025;-69
2023/03/14 03:28:29;;;;;;;13.75;4.53;;;11.30;99.90;;;;;;5028159;28;20097;-69
2023/03/14 03:30:54;;;;;;;12.57;4.35;;;11.40;99.90;;;;;;5037634;28;20025;-69
2023/03/14 03:33:22;;;;;;;24.33;5.45;;;11.30;99.90;;;;;;5037365;28;20117;-69
2023/03/14 03:35:50;;;;;;;16.83;4.68;;;11.40;99.90;;;;;;5039494;28;20028;-69
2023/03/14 03:38:16;;;;;;;20.92;4.45;;;11.30;99.90;;;;;;5038256;28;20104;-69
2023/03/14 03:40:42;;;;;;;22.45;5.43;;;11.30;99.90;;;;;;5037005;28;20028;-69
2023/03/14 03:43:07;;;;;;;19.13;5.63;;;11.30;99.90;;;;;;5047637;28;20032;-70
2023/03/14 03:45:33;;;;;;;14.43;3.95;;;11.30;99.90;;;;;;5047821;28;20031;-69
2023/03/14 03:47:59;;;;;;;11.23;3.50;;;11.30;99.90;;;;;;5056347;28;20044;-69
2023/03/14 03:50:25;;;;;;;19.27;4.45;;;11.30;99.90;;;;;;5054733;28;20032;-70
2023/03/14 03:52:51;;;;;;;9.63;3.80;;;11.20;99.90;;;;;;5056087;28;20087;-70
2023/03/14 03:55:16;;;;;;;20.00;5.47;;;11.10;99.90;;;;;;5055578;28;20021;-69
2023/03/14 03:57:42;;;;;;;12.77;4.40;;;11.10;99.90;;;;;;5055973;28;20035;-70
2023/03/14 04:00:11;;;;;;;15.15;3.90;;;11.10;99.90;;;;;;5055215;28;20070;-69
2023/03/14 04:02:37;;;;;;;12.10;5.28;;;11.00;99.90;;;;;;5056050;28;20021;-70
2023/03/14 04:05:03;;;;;;;11.40;3.80;;;11.20;99.90;;;;;;5055072;28;20425;-70
2023/03/14 04:07:32;;;;;;;15.52;3.22;;;11.20;99.90;;;;;;5056306;28;20021;-71
2023/03/14 04:09:57;;;;;;;8.38;3.58;;;11.10;99.90;;;;;;5055624;28;20029;-71
2023/03/14 04:12:23;;;;;;;8.55;3.30;;;11.20;99.90;;;;;;5056179;28;20023;-69
2023/03/14 04:14:49;;;;;;;7.75;2.80;;;11.10;99.90;;;;;;5054039;28;20440;-71
2023/03/14 04:17:14;;;;;;;13.45;4.40;;;11.10;99.90;;;;;;5056241;28;20017;-70
2023/03/14 04:19:40;;;;;;;14.85;3.13;;;11.10;99.90;;;;;;5054098;28;20397;-70
2023/03/14 04:22:06;;;;;;;7.80;3.22;;;11.10;99.90;;;;;;5056305;28;20108;-70
2023/03/14 04:24:31;;;;;;;12.88;4.63;;;11.00;99.90;;;;;;5055515;28;20035;-70
2023/03/14 04:26:57;;;;;;;7.88;3.15;;;11.00;99.90;;;;;;5055883;28;20044;-70
2023/03/14 04:29:23;;;;;;;11.27;3.58;;;10.80;99.90;;;;;;5051780;28;20501;-71
2023/03/14 04:31:48;;;;;;;10.48;3.88;;;10.70;99.90;;;;;;5035362;28;20123;-71
2023/03/14 04:34:14;;;;;;;15.35;3.92;;;10.50;99.90;;;;;;5040418;28;20500;-71
2023/03/14 04:36:40;;;;;;;16.80;4.53;;;10.30;99.90;;;;;;5045316;28;20573;-70
2023/03/14 04:39:05;;;;;;;22.50;5.97;;;10.10;99.90;;;;;;5050019;28;20024;-71
2023/03/14 04:41:31;;;;;;;15.23;5.22;;;9.90;99.90;;;;;;5036799;28;20025;-70
2023/03/14 04:43:57;;;;;;;9.80;3.70;;;9.80;99.90;;;;;;5026548;28;20032;-71
2023/03/14 04:46:23;;;;;;;18.65;5.15;;;9.80;99.90;;;;;;5036770;28;20105;-71
2023/03/14 04:48:48;;;;;;;16.05;5.70;;;9.80;99.90;;;;;;5040344;28;20378;-71
2023/03/14 04:51:14;;;;;;;13.48;5.20;;;9.80;99.90;;;;;;5056139;28;20508;-71
2023/03/14 04:53:41;;;;;;;21.27;4.57;;;9.80;99.90;;;;;;5055685;28;20480;-71
2023/03/14 04:56:07;;;;;;;19.45;5.50;;;9.80;99.90;;;;;;5056042;28;20020;-71
2023/03/14 04:58:32;;;;;;;16.85;4.82;;;9.80;99.90;;;;;;5055198;28;20108;-71
2023/03/14 05:01:04;;;;;;;22.88;4.97;;;9.90;99.90;;;;;;5056019;28;20488;-71
2023/03/14 05:03:30;;;;;;;14.40;5.00;;;9.90;99.90;;;;;;5054679;28;20029;-71
2023/03/14 05:05:57;;;;;;;17.85;5.40;;;10.00;99.90;;;;;;5056019;28;20033;-70
2023/03/14 05:08:23;;;;;;;17.67;4.82;;;10.00;99.90;;;;;;5058662;28;20447;-72
2023/03/14 05:10:55;;;;;;;21.73;6.25;;;10.00;99.90;;;;;;5058369;28;20102;-71
2023/03/14 05:13:21;;;;;;;23.65;6.30;;;10.00;99.90;;;;;;5052178;28;20026;-71
2023/03/14 05:15:47;;;;;;;28.77;7.75;;;10.10;99.90;;;;;;5040178;28;20112;-71
2023/03/14 05:18:13;;;;;;;22.98;5.68;;;10.10;99.90;;;;;;5040455;28;20056;-71
2023/03/14 05:20:38;;;;;;;28.40;6.63;;;10.10;99.90;;;;;;5038754;28;20087;-72
2023/03/14 05:23:04;;;;;;;17.05;5.35;;;10.10;99.90;;;;;;5039526;28;20036;-71
2023/03/14 05:25:30;;;;;;;22.45;6.22;;;10.10;99.90;;;;;;5040676;28;20029;-71
2023/03/14 05:27:56;;;;;;;18.58;5.63;;;10.10;99.90;;;;;;5040211;28;20048;-71
2023/03/14 05:30:22;;;;;;;13.43;4.93;;;10.10;99.90;;;;;;5040981;28;20025;-70
2023/03/14 05:32:48;;;;;;;21.58;6.88;;;10.10;99.90;;;;;;5040082;28;20456;-71
2023/03/14 05:35:14;;;;;;;22.52;4.53;;;10.10;99.90;;;;;;5040196;28;20021;-70
2023/03/14 05:37:39;;;;;;;21.50;6.25;;;10.10;99.90;;;;;;5037874;28;20065;-71
2023/03/14 05:40:06;;;;;;;18.67;5.40;;;10.10;99.90;;;;;;5047563;28;20104;-70
2023/03/14 05:42:32;;;;;;;23.20;5.57;;;10.10;99.90;;;;;;5047867;28;20397;-70
2023/03/14 05:44:58;;;;;;;17.80;6.30;;;10.00;99.90;;;;;;5053554;28;20021;-70
2023/03/14 05:47:24;;;;;;;15.25;4.60;;;10.00;99.90;;;;;;5047236;28;20032;-70
2023/03/14 05:49:50;;;;;;;16.95;4.68;;;9.90;99.90;;;;;;5032639;28;20048;-71
2023/03/14 05:52:15;;;;;;;12.30;4.25;;;10.00;99.90;;;;;;5045476;28;20528;-70
2023/03/14 05:54:41;;;;;;;21.05;4.75;;;10.00;99.90;;;;;;5044614;28;20053;-71
2023/03/14 05:57:07;;;;;;;26.42;10.32;;;10.10;99.90;;;;;;5045732;28;20151;-70
2023/03/14 05:59:32;;;;;;;14.25;4.28;;;10.10;99.90;;;;;;5032863;28;20070;-70
2023/03/14 06:01:58;;;;;;;18.65;5.88;;;10.10;99.90;;;;;;5043925;28;20025;-71
2023/03/14 06:04:24;;;;;;;11.20;5.20;;;10.20;99.90;;;;;;5045711;28;20024;-71
2023/03/14 06:06:50;;;;;;;17.92;6.65;;;10.20;99.90;;;;;;5043003;28;20113;-72
2023/03/14 06:09:16;;;;;;;12.15;4.68;;;10.20;99.90;;;;;;5045469;28;20052;-71
2023/03/14 06:11:42;;;;;;;19.42;5.05;;;10.30;99.90;;;;;;5041712;28;20032;-72
2023/03/14 06:14:07;;;;;;;18.52;4.20;;;10.30;99.90;;;;;;5046011;28;20021;-71
2023/03/14 06:16:33;;;;;;;13.98;5.20;;;10.30;99.90;;;;;;5033241;28;20026;-71
2023/03/14 06:18:59;;;;;;;17.27;4.53;;;10.40;99.90;;;;;;5024123;28;20026;-71
2023/03/14 06:21:25;;;;;;;17.25;5.90;;;10.30;99.90;;;;;;5055320;28;20018;-71
2023/03/14 06:23:51;;;;;;;23.23;4.38;;;10.40;99.90;;;;;;5057319;28;20510;-71
2023/03/14 06:26:16;;;;;;;16.30;4.25;;;10.40;99.90;;;;;;5057732;28;20079;-70
2023/03/14 06:28:42;;;;;;;17.55;5.22;;;10.40;99.90;;;;;;5057011;28;20464;-70
2023/03/14 06:31:08;;;;;;;11.88;4.00;;;10.40;99.90;;;;;;5058016;28;20473;-70
2023/03/14 06:33:33;;;;;;;18.38;6.32;;;10.40;99.90;;;;;;5058072;28;20056;-70
2023/03/14 06:35:59;;;;;;;13.93;4.68;;;10.40;99.90;;;;;;5057587;28;20032;-70
2023/03/14 06:38:25;;;;;;;17.75;4.13;;;10.40;99.90;;;;;;5058254;28;20060;-70
2023/03/14 06:40:50;;;;;;;20.80;5.20;;;10.40;99.90;;;;;;5055437;28;20085;-70
2023/03/14 06:43:16;;;;;;;13.07;4.85;;;10.40;99.90;;;;;;5058051;28;20029;-70
2023/03/14 06:45:41;;;;;;;11.50;6.22;;;10.40;99.90;;;;;;5049229;28;20071;-70
2023/03/14 06:48:07;;;;;;;19.13;5.45;;;10.40;99.90;;;;;;5058143;28;20029;-71
2023/03/14 06:50:33;;;;;;;22.40;5.78;;;10.40;99.90;;;;;;5057445;28;20029;-71
2023/03/14 06:52:58;;;;;;;12.90;5.07;;;10.50;99.90;;;;;;5057545;28;20055;-70
2023/03/14 06:55:24;;;;;;;16.48;4.93;;;10.50;99.90;;;;;;5053175;28;20025;-70
2023/03/14 06:57:50;;;;;;;20.25;5.97;;;10.60;99.90;;;;;;5037847;28;20017;-70
2023/03/14 07:00:16;;;;;;;23.90;6.40;;;10.60;99.90;;;;;;5055576;28;20051;-70
2023/03/14 07:02:41;;;;;;;20.95;6.22;;;10.50;99.90;;;;;;5057932;28;20565;-70
2023/03/14 07:05:07;;;;;;;35.47;7.95;;;10.50;99.90;;;;;;5034146;28;20053;-70
2023/03/14 07:07:33;;;;;;;22.95;5.82;;;10.40;99.90;;;;;;5038330;28;20088;-70
2023/03/14 07:09:58;;;;;;;29.92;7.40;;;10.20;99.90;;;;;;5040251;28;20029;-70
2023/03/14 07:12:24;;;;;;;28.15;7.13;;;10.00;99.90;;;;;;5036549;28;20023;-71
2023/03/14 07:14:50;;;;;;;35.65;9.38;;;9.90;99.90;;;;;;5040586;28;20147;-71
2023/03/14 07:17:15;;;;;;;28.63;8.40;;;9.90;99.90;;;;;;5038158;28;20033;-70
2023/03/14 07:19:41;;;;;;;33.45;6.63;;;9.80;99.90;;;;;;5038987;28;20021;-69
2023/03/14 07:22:07;;;;;;;22.58;6.80;;;9.80;99.90;;;;;;5038973;28;20025;-70
2023/03/14 07:24:32;;;;;;;34.67;7.65;;;9.70;99.90;;;;;;5037859;28;20060;-71
2023/03/14 07:26:58;;;;;;;35.45;7.75;;;9.80;99.90;;;;;;5039366;28;20097;-71
2023/03/14 07:29:24;;;;;;;29.30;6.60;;;9.80;99.90;;;;;;5039021;28;20488;-71
2023/03/14 07:31:50;;;;;;;32.90;7.28;;;9.90;99.90;;;;;;5035332;28;20068;-70
2023/03/14 07:34:16;;;;;;;26.98;7.45;;;10.00;99.90;;;;;;5038541;28;20033;-70
2023/03/14 07:36:42;;;;;;;29.02;7.32;;;10.10;99.90;;;;;;5038561;28;20029;-71
2023/03/14 07:39:07;;;;;;;29.35;8.18;;;10.20;99.90;;;;;;5036777;28;20072;-71
2023/03/14 07:41:33;;;;;;;30.17;5.88;;;10.30;99.90;;;;;;5039506;28;20049;-70
2023/03/14 07:43:59;;;;;;;26.95;7.07;;;10.50;99.90;;;;;;5039738;28;20033;-70
2023/03/14 07:46:25;;;;;;;40.05;8.15;;;10.60;99.90;;;;;;5035500;28;20033;-70
2023/03/14 07:48:50;;;;;;;23.50;7.35;;;10.60;99.90;;;;;;5042958;28;20088;-70
2023/03/14 07:51:16;;;;;;;27.85;7.10;;;10.70;99.90;;;;;;5037657;28;20065;-71
2023/03/14 07:53:43;;;;;;;45.35;9.57;;;10.70;99.90;;;;;;5036665;28;20029;-70
2023/03/14 07:56:08;;;;;;;36.20;8.18;;;10.80;99.90;;;;;;5039149;28;20017;-70
2023/03/14 07:58:34;;;;;;;43.63;8.18;;;10.90;99.90;;;;;;5039029;28;20021;-70
2023/03/14 08:01:00;;;;;;;38.50;8.57;;;10.90;99.90;;;;;;5036126;28;20034;-70
2023/03/14 08:03:25;;;;;;;40.03;8.85;;;10.90;99.90;;;;;;5040482;28;20100;-70
2023/03/14 08:05:51;;;;;;;43.00;9.35;;;10.90;99.90;;;;;;5035571;28;20026;-70
2023/03/14 08:08:18;;;;;;;25.63;7.47;;;11.00;99.90;;;;;;5039384;28;20067;-71
2023/03/14 08:10:44;;;;;;;26.63;6.97;;;11.10;99.90;;;;;;5037959;28;20033;-71
2023/03/14 08:13:10;;;;;;;38.72;8.43;;;11.20;99.90;;;;;;5036840;28;20022;-72
2023/03/14 08:15:36;;;;;;;30.30;9.45;;;11.20;99.90;;;;;;5038320;28;20082;-72
2023/03/14 08:18:02;;;;;;;36.78;9.27;;;11.20;99.90;;;;;;5039755;28;20024;-72
2023/03/14 08:20:29;;;;;;;34.95;7.20;;;11.20;99.90;;;;;;5036222;28;20156;-71
2023/03/14 08:22:57;;;;;;;27.38;7.15;;;11.30;99.90;;;;;;5039024;28;20112;-71
2023/03/14 08:25:23;;;;;;;31.38;6.80;;;11.50;99.90;;;;;;5036516;28;20059;-71
2023/03/14 08:27:48;;;;;;;36.10;6.35;;;11.50;99.90;;;;;;5034294;28;20045;-72
2023/03/14 08:30:17;;;;;;;36.97;8.90;;;11.50;99.90;;;;;;5038347;28;20072;-71
2023/03/14 08:32:42;;;;;;;24.65;7.88;;;11.60;99.90;;;;;;5038165;28;20030;-70
2023/03/14 08:35:09;;;;;;;28.80;7.53;;;11.70;99.90;;;;;;5034810;28;20090;-70
2023/03/14 08:37:36;;;;;;;34.45;7.80;;;11.70;99.90;;;;;;5040718;28;20021;-71
2023/03/14 08:40:06;;;;;;;16.80;5.22;;;11.90;99.90;;;;;;5035709;28;20021;-72
2023/03/14 08:42:33;;;;;;;26.40;7.25;;;11.90;99.90;;;;;;5040374;28;20025;-72
2023/03/14 08:44:58;;;;;;;23.10;6.60;;;12.10;99.90;;;;;;5037882;28;20045;-71
2023/03/14 08:47:24;;;;;;;29.60;7.95;;;12.30;99.90;;;;;;5040110;28;20409;-71
2023/03/14 08:49:50;;;;;;;14.95;4.72;;;12.30;99.90;;;;;;5042770;28;20073;-71
2023/03/14 08:52:16;;;;;;;36.75;8.25;;;12.40;99.90;;;;;;5043360;28;20057;-71
2023/03/14 08:54:45;;;;;;;24.52;7.28;;;12.40;99.90;;;;;;5038272;28;20390;-71
2023/03/14 08:57:11;;;;;;;46.63;17.63;;;12.40;99.90;;;;;;5044927;28;20009;-72
2023/03/14 08:59:37;;;;;;;24.88;7.05;;;12.40;99.90;;;;;;5041034;28;20072;-72
2023/03/14 09:02:03;;;;;;;22.67;5.88;;;12.40;99.90;;;;;;5040195;28;20052;-71
2023/03/14 09:04:32;;;;;;;22.23;5.03;;;12.40;99.90;;;;;;5038842;28;20029;-71
2023/03/14 09:06:59;;;;;;;19.33;6.53;;;12.50;99.90;;;;;;5041639;28;20071;-71
2023/03/14 09:09:28;;;;;;;31.13;8.35;;;12.60;99.90;;;;;;5039388;28;20036;-71
2023/03/14 09:11:54;;;;;;;55.65;19.10;;;12.60;99.90;;;;;;5043307;28;20041;-71
2023/03/14 09:14:20;;;;;;;26.55;4.97;;;12.60;99.90;;;;;;5037886;28;20071;-72
2023/03/14 09:16:45;;;;;;;30.83;5.32;;;12.70;99.90;;;;;;5042340;28;20035;-71
2023/03/14 09:19:11;;;;;;;14.90;5.45;;;12.40;99.90;;;;;;5040156;28;20021;-73
2023/03/14 09:21:38;;;;;;;91.25;38.83;;;12.20;99.90;;;;;;5040265;28;20021;-72
2023/03/14 09:24:04;;;;;;;19.48;5.93;;;12.20;99.90;;;;;;5041745;28;20132;-71
2023/03/14 09:26:30;;;;;;;21.02;4.85;;;12.30;99.90;;;;;;5040795;28;20370;-72
2023/03/14 09:28:55;;;;;;;32.33;7.25;;;12.40;99.90;;;;;;5039245;28;20109;-72
2023/03/14 09:31:21;;;;;;;29.40;6.88;;;12.40;99.90;;;;;;5039346;28;20084;-72
2023/03/14 09:33:47;;;;;;;31.83;7.40;;;12.30;99.90;;;;;;5037728;28;20044;-72
2023/03/14 09:36:13;;;;;;;32.55;7.10;;;12.10;99.90;;;;;;5037748;28;20026;-72
2023/03/14 09:38:38;;;;;;;31.90;7.35;;;11.80;99.90;;;;;;5038882;28;20029;-73
2023/03/14 09:41:17;;;;;;;28.50;8.50;;;11.50;99.90;;;;;;5038357;28;20022;-73
2023/03/14 09:43:45;;;;;;;19.63;6.38;;;11.00;99.90;;;;;;5039970;28;20467;-72
2023/03/14 09:46:12;;;;;;;28.27;6.82;;;10.80;99.90;;;;;;5039218;28;20052;-72
2023/03/14 09:48:37;;;;;;;18.48;5.28;;;10.60;99.90;;;;;;5044709;28;20067;-72
2023/03/14 09:51:13;;;;;;;23.60;5.93;;;10.50;99.90;;;;;;5040322;28;20049;-73
2023/03/14 09:53:45;;;;;;;31.55;6.35;;;10.40;99.90;;;;;;5038420;28;20527;-73
2023/03/14 09:56:27;;;;;;;30.25;5.32;;;10.20;99.90;;;;;;5039117;28;20018;-72
2023/03/14 09:58:59;;;;;;;30.27;7.45;;;10.10;99.90;;;;;;5034557;28;20032;-72
2023/03/14 10:01:30;;;;;;;29.25;7.03;;;10.10;99.90;;;;;;5040180;28;20081;-72
2023/03/14 10:03:59;;;;;;;24.67;6.47;;;10.30;99.90;;;;;;5038657;28;20037;-72
2023/03/14 10:06:29;;;;;;;10.32;4.13;;;10.50;99.90;;;;;;5037654;28;20137;-72
2023/03/14 10:08:56;;;;;;;11.60;3.97;;;10.40;99.90;;;;;;5043795;28;20049;-71
2023/03/14 10:11:22;;;;;;;13.20;3.72;;;10.00;99.90;;;;;;5036166;28;20397;-73
2023/03/14 10:14:06;;;;;;;13.45;5.05;;;9.60;99.90;;;;;;5040256;28;20099;-73
2023/03/14 10:16:40;;;;;;;9.43;3.47;;;9.40;99.90;;;;;;5040047;28;20104;-72
2023/03/14 10:19:10;;;;;;;10.15;3.65;;;9.20;99.90;;;;;;5041677;28;20025;-72
2023/03/14 10:21:44;;;;;;;15.93;4.80;;;9.10;99.90;;;;;;5041006;28;20022;-73
2023/03/14 10:24:27;;;;;;;25.70;6.80;;;9.10;99.90;;;;;;5038156;28;20053;-72
2023/03/14 10:26:58;;;;;;;16.13;4.78;;;9.30;99.90;;;;;;5041449;28;20039;-72
2023/03/14 10:29:24;;;;;;;23.80;7.68;;;9.50;99.90;;;;;;5041543;28;20040;-72
2023/03/14 10:31:55;;;;;;;15.57;5.10;;;9.70;99.90;;;;;;5040687;28;20378;-73
2023/03/14 10:34:24;;;;;;;21.00;6.05;;;10.10;99.90;;;;;;5038163;28;20039;-72
2023/03/14 10:36:55;;;;;;;19.90;4.25;;;10.50;99.90;;;;;;5041680;28;20417;-72
2023/03/14 10:39:28;;;;;;;9.07;4.18;;;10.80;99.90;;;;;;5034790;28;20048;-72
2023/03/14 10:42:12;;;;;;;19.75;6.50;;;10.90;99.90;;;;;;5038675;28;20049;-73
2023/03/14 10:44:38;;;;;;;19.63;5.38;;;11.00;99.90;;;;;;5038807;28;20030;-73
2023/03/14 10:47:05;;;;;;;18.33;5.47;;;11.00;99.90;;;;;;5037923;28;20088;-72
2023/03/14 10:49:36;;;;;;;14.32;4.47;;;11.00;99.90;;;;;;5047769;28;20032;-71
2023/03/14 10:52:27;;;;;;;13.13;4.97;;;11.20;99.90;;;;;;5046130;28;20056;-72
2023/03/14 10:55:01;;;;;;;15.20;5.28;;;11.30;99.90;;;;;;5034879;28;20029;-72
2023/03/14 10:57:28;;;;;;;15.63;4.30;;;11.50;99.90;;;;;;5049010;28;20088;-72
2023/03/14 10:59:59;;;;;;;14.23;4.68;;;11.70;99.90;;;;;;5049945;28;20432;-72
2023/03/14 11:02:48;;;;;;;13.70;4.88;;;11.80;99.90;;;;;;5032061;28;20024;-71
2023/03/14 11:05:38;;;;;;;17.27;5.20;;;12.10;99.90;;;;;;5052690;28;20098;-72
2023/03/14 11:08:30;;;;;;;22.50;5.13;;;12.20;99.90;;;;;;5050375;28;20392;-73
2023/03/14 11:11:07;;;;;;;21.80;5.13;;;12.50;99.90;;;;;;5053947;28;20331;-72
2023/03/14 11:13:47;;;;;;;13.48;3.85;;;12.60;99.90;;;;;;5052134;28;20033;-72
2023/03/14 11:16:37;;;;;;;18.30;3.47;;;12.40;99.90;;;;;;5051877;28;20071;-73
2023/03/14 11:19:21;;;;;;;15.18;3.25;;;11.90;99.90;;;;;;5054739;28;20032;-71
2023/03/14 11:21:55;;;;;;;11.25;3.30;;;10.40;99.90;;;;;;5054260;28;20021;-73
2023/03/14 11:24:30;;;;;;;10.55;3.10;;;9.80;99.90;;;;;;5052121;28;20482;-72
2023/03/14 11:27:06;;;;;;;8.35;3.22;;;9.60;99.90;;;;;;5054517;28;20021;-72
2023/03/14 11:29:44;;;;;;;7.03;3.33;;;9.70;99.90;;;;;;5051644;28;20024;-72
2023/03/14 11:32:43;;;;;;;10.02;3.15;;;9.90;99.90;;;;;;5053964;28;20388;-72
2023/03/14 11:35:38;;;;;;;7.57;3.35;;;10.20;99.90;;;;;;5037587;28;20045;-71
2023/03/14 11:38:31;;;;;;;8.73;2.88;;;10.60;99.90;;;;;;5031689;28;20029;-70
2023/03/14 11:40:58;;;;;;;10.63;5.47;;;10.90;99.90;;;;;;5038763;28;20029;-71
2023/03/14 11:43:26;;;;;;;9.65;3.03;;;10.80;99.90;;;;;;5043262;28;20040;-71
2023/03/14 11:45:59;;;;;;;8.13;3.13;;;10.60;99.90;;;;;;5043124;28;20466;-71
2023/03/14 11:48:35;;;;;;;10.57;6.25;;;10.40;99.90;;;;;;5029619;28;20096;-71
2023/03/14 11:51:04;;;;;;;6.97;2.63;;;10.10;99.90;;;;;;5044363;28;20570;-70
2023/03/14 11:54:00;;;;;;;9.40;3.22;;;9.80;99.90;;;;;;5042426;28;20025;-70
2023/03/14 11:56:46;;;;;;;5.22;2.63;;;9.60;99.90;;;;;;5040873;28;20028;-70
2023/03/14 11:59:17;;;;;;;9.40;3.95;;;9.50;99.90;;;;;;5032247;28;20071;-70
2023/03/14 12:01:54;;;;;;;11.07;4.45;;;9.60;99.90;;;;;;5041276;28;20021;-69
2023/03/14 12:04:29;;;;;;;6.13;2.97;;;9.70;99.90;;;;;;5041118;28;20021;-70
2023/03/14 12:07:01;;;;;;;9.55;3.38;;;10.00;99.90;;;;;;5039717;28;20040;-69
2023/03/14 12:09:27;;;;;;;7.82;2.63;;;10.10;99.90;;;;;;5047497;28;20067;-69
2023/03/14 12:12:00;;;;;;;7.68;4.38;;;10.20;99.90;;;;;;5048584;28;20052;-69
2023/03/14 12:14:29;;;;;;;7.07;3.03;;;10.30;99.90;;;;;;5050892;28;20033;-69
2023/03/14 12:17:07;;;;;;;8.23;3.65;;;10.60;99.90;;;;;;5049413;28;20021;-69
2023/03/14 12:19:39;;;;;;;9.13;2.95;;;10.90;99.90;;;;;;5048524;28;20021;-68
2023/03/14 12:22:25;;;;;;;10.10;5.20;;;11.20;99.90;;;;;;5030764;28;20032;-69
2023/03/14 12:24:56;;;;;;;10.07;4.10;;;11.40;99.90;;;;;;5049513;28;20021;-69
2023/03/14 12:27:42;;;;;;;7.10;3.55;;;11.50;99.90;;;;;;5052028;28;20516;-69
2023/03/14 12:30:36;;;;;;;6.75;2.80;;;11.50;99.90;;;;;;5029104;28;20031;-69
2023/03/14 12:33:17;;;;;;;11.82;3.92;;;11.40;99.90;;;;;;5031751;28;20044;-69
2023/03/14 12:35:42;;;;;;;;;;;11.30;99.90;;;;;;5043504;28;20520;-70
2023/03/14 12:38:36;;;;;;;7.85;2.92;;;11.30;99.90;;;;;;5050604;28;19905;-69
2023/03/14 12:41:08;;;;;;;15.95;4.15;;;11.20;99.90;;;;;;5049105;28;20465;-70
2023/03/14 12:43:34;;;;;;;7.97;3.17;;;11.20;99.90;;;;;;5051002;28;20017;-69
2023/03/14 12:46:08;;;;;;;9.88;3.35;;;11.10;99.90;;;;;;5034300;28;20083;-69
2023/03/14 12:48:33;;;;;;;14.30;3.88;;;11.00;99.90;;;;;;5049741;28;20033;-69